»·PEaware :: UAL1399 KLAX-KLAS

UAL1399 :: KLAX-KLAS

FLIGHT INFORMATION

Flight Status: Arrived
Operator:
United Airlines
More flights by this operator :: More flights under this callsign
Pilot: David C. (16084)
Aircraft: AIRBUS A320
(A320)
More flights by this aircraft type
Origin: KLAX Los Angeles Intl
United States
Destination: KLAS McCarran Intl
United States
More flights between these airports :: More routes between these airports
Route: ORCKA3 MISEN KEPEC6
File this flight plan on PilotEdge
Remarks:
Altitude:
(Current/Filed)
29,000ft
Speed:
(Current/Filed)
487kts
Departed: 06-Jul-18 10:00 AM
Arrived: 06-Jul-18 10:42 AM
Distance/Time
Traveled:
206nm/0:42
Distance/Time
To Go:
Arrived

Flight Plot

Page will automatically refresh every two minutes.

Flight plan parsing failed; only flown route is shown


Map Options




Map Legend


Flown Route
Filed Route
Departure Airport
Arrival Airport
Navaid (VOR, NDB)
Fix

Horizontal Profiles

Position Reports

Time Latitude Longitude Heading Altitude Ground
Speed
06-Jul-18 09:24 33.941338 -118.397632 0 136ft 0kts
06-Jul-18 09:25 33.941338 -118.397632 84 136ft 0kts
06-Jul-18 09:27 33.941338 -118.397632 84 136ft 0kts
06-Jul-18 09:28 33.941338 -118.397632 84 136ft 0kts
06-Jul-18 09:29 33.941338 -118.397632 84 136ft 0kts
06-Jul-18 09:30 33.941338 -118.397632 84 136ft 0kts
06-Jul-18 09:31 33.941338 -118.397632 84 136ft 0kts
06-Jul-18 09:32 33.941338 -118.397632 84 136ft 0kts
06-Jul-18 09:33 33.941338 -118.397632 84 136ft 0kts
06-Jul-18 09:34 33.941338 -118.397632 84 136ft 0kts
06-Jul-18 09:35 33.941338 -118.397632 84 136ft 0kts
06-Jul-18 09:36 33.941338 -118.397632 84 136ft 0kts
06-Jul-18 09:37 33.941338 -118.397632 84 136ft 0kts
06-Jul-18 09:38 33.941338 -118.397632 84 136ft 0kts
06-Jul-18 09:39 33.941338 -118.397632 84 136ft 0kts
06-Jul-18 09:40 33.941339 -118.397669 69 136ft 0kts
06-Jul-18 09:41 33.941312 -118.398286 136 136ft 2kts
06-Jul-18 09:42 33.941507 -118.398385 170 136ft 0kts
06-Jul-18 09:43 33.941507 -118.398385 171 136ft 0kts
06-Jul-18 09:44 33.941507 -118.398385 171 136ft 0kts
06-Jul-18 09:45 33.941507 -118.398385 171 136ft 0kts
06-Jul-18 09:46 33.941507 -118.398385 171 136ft 0kts
06-Jul-18 09:47 33.941507 -118.398385 171 136ft 0kts
06-Jul-18 09:48 33.941507 -118.398385 171 136ft 0kts
06-Jul-18 09:49 33.941507 -118.398385 171 136ft 0kts
06-Jul-18 09:50 33.941507 -118.398385 171 136ft 0kts
06-Jul-18 09:51 33.939970 -118.397852 119 136ft 10kts
06-Jul-18 09:52 33.939348 -118.394284 83 136ft 11kts
06-Jul-18 09:53 33.939901 -118.389078 85 136ft 19kts
06-Jul-18 09:54 33.940395 -118.384126 83 136ft 0kts
06-Jul-18 09:55 33.940434 -118.383730 83 136ft 4kts
06-Jul-18 09:56 33.940770 -118.380469 100 136ft 0kts
06-Jul-18 09:57 33.940770 -118.380470 100 136ft 0kts
06-Jul-18 09:58 33.940770 -118.380470 100 136ft 0kts
06-Jul-18 09:59 33.940770 -118.380470 100 136ft 0kts
06-Jul-18 10:00 33.940491 -118.380024 154 136ft 8kts
06-Jul-18 10:01 33.939356 -118.385015 263 136ft 90kts
06-Jul-18 10:02 33.932957 -118.442608 263 2037ft 209kts
06-Jul-18 10:03 33.919018 -118.508812 248 4378ft 214kts
06-Jul-18 10:04 33.897719 -118.575448 248 7643ft 220kts
06-Jul-18 10:05 33.852282 -118.602796 143 10579ft 231kts
06-Jul-18 10:06 33.860585 -118.530593 50 12896ft 288kts
06-Jul-18 10:07 33.917907 -118.454196 50 15403ft 321kts
06-Jul-18 10:08 33.970829 -118.366039 57 18055ft 334kts
06-Jul-18 10:09 34.022030 -118.275824 57 19197ft 338kts
06-Jul-18 10:10 34.077298 -118.178197 57 20768ft 370kts
06-Jul-18 10:11 34.135303 -118.075549 57 22805ft 382kts
06-Jul-18 10:12 34.195145 -117.969298 57 24660ft 393kts
06-Jul-18 10:13 34.256963 -117.859194 57 26296ft 402kts
06-Jul-18 10:14 34.320383 -117.745869 57 27883ft 412kts
06-Jul-18 10:15 34.386504 -117.631829 56 29240ft 416kts
06-Jul-18 10:16 34.456536 -117.514295 55 29294ft 452kts
06-Jul-18 10:17 34.532573 -117.386351 55 29287ft 483kts
06-Jul-18 10:18 34.610776 -117.254431 56 29288ft 486kts
06-Jul-18 10:19 34.689322 -117.121369 56 29288ft 486kts
06-Jul-18 10:20 34.767508 -116.988388 55 29266ft 483kts
06-Jul-18 10:21 34.844978 -116.856136 55 29239ft 479kts
06-Jul-18 10:22 34.921959 -116.724208 55 29193ft 479kts
06-Jul-18 10:23 34.998184 -116.589200 56 28575ft 492kts
06-Jul-18 10:24 35.075770 -116.451340 55 25290ft 500kts
06-Jul-18 10:25 35.163698 -116.327281 46 22741ft 492kts
06-Jul-18 10:26 35.257802 -116.209269 46 20500ft 480kts
06-Jul-18 10:27 35.349481 -116.093865 46 18334ft 467kts
06-Jul-18 10:28 35.438154 -115.981860 46 16268ft 453kts
06-Jul-18 10:29 35.524354 -115.872625 46 14481ft 431kts
06-Jul-18 10:30 35.602509 -115.773391 47 13647ft 377kts
06-Jul-18 10:31 35.670417 -115.686869 47 13100ft 330kts
06-Jul-18 10:32 35.731780 -115.606052 52 13069ft 302kts
06-Jul-18 10:33 35.781729 -115.531682 52 13070ft 279kts
06-Jul-18 10:34 35.827712 -115.455453 81 13049ft 272kts
06-Jul-18 10:35 35.804622 -115.375079 122 11716ft 251kts
06-Jul-18 10:36 35.794571 -115.292341 51 9831ft 280kts
06-Jul-18 10:37 35.864098 -115.280622 342 7978ft 262kts
06-Jul-18 10:38 35.931668 -115.293725 23 6811ft 243kts
06-Jul-18 10:39 35.977297 -115.240332 44 5477ft 219kts
06-Jul-18 10:40 36.017061 -115.203195 22 4224ft 160kts
06-Jul-18 10:41 36.055836 -115.181651 23 2771ft 148kts
06-Jul-18 10:42 36.090963 -115.161576 25 2190ft 87kts
06-Jul-18 10:43 36.094744 -115.154285 117 2190ft 0kts
06-Jul-18 10:44 36.094730 -115.154253 118 2190ft 2kts
06-Jul-18 10:45 36.091765 -115.155185 202 2190ft 6kts
06-Jul-18 10:46 36.086714 -115.157778 171 2190ft 29kts
06-Jul-18 10:47 36.080286 -115.154150 158 2190ft 20kts
06-Jul-18 10:48 36.078571 -115.148148 94 2190ft 21kts
06-Jul-18 10:49 36.079162 -115.142441 2 2190ft 15kts
06-Jul-18 10:50 36.081281 -115.139793 131 2190ft 0kts

Navigation Log

Ident Type
Flight plan parsing failed, navigation log unavailable